Chesterfield, Illinois
Current Conditions -  °F | °C
As of 1:55 PM on Wednesday 26 Nov 2014 (Local Time) from K3LF Reporting Station
Broken Clouds Broken Clouds  
Wind Chill: 27°   Ceiling: 2800
Heat Index: 34°   Visibility: 7mi
Dew Point: 28°   Wind: 8mph
Humidity: 77%   Direction: 120°ESE
Pressure: 29.99"   Gusts: NA
Location:  39.26°N, 90.06°W
Report Text: K3LF 261955Z AUTO 12007KT 7SM BKN028 BKN038 01/M02 A2999 RMK AO2 T00111025
Loading
Personal Weather Stations






























Interactive Weather Map New forecast layout! Learn more

10-Day Weather Forecast

Advertisements
Track Severe Weather on mobile